Time;durP1;ratioP1;P1;durP2;ratioP2;P2;SDS_P1;SDS_P2;PMS_P1;PMS_P2;Temp;Humidity;BMP_temperature;BMP_pressure;BME280_temperature;BME280_humidity;BME280_pressure;Samples;Min_cycle;Max_cycle;Signal;HPM_P1;HPM_P2
2021/03/06 00:02:19;;;;;;;1.50;1.40;;;23.30;27.00;;;;;;5053052;28;20218;-47
2021/03/06 00:04:45;;;;;;;1.60;1.50;;;23.20;26.90;;;;;;5048531;28;20553;-46
2021/03/06 00:07:11;;;;;;;1.60;1.50;;;23.30;27.00;;;;;;5052751;28;20233;-45
2021/03/06 00:09:37;;;;;;;1.97;1.80;;;23.20;25.90;;;;;;5052822;28;20209;-46
2021/03/06 00:12:03;;;;;;;1.80;1.70;;;23.10;24.30;;;;;;5053186;28;20220;-49
2021/03/06 00:14:28;;;;;;;1.97;1.77;;;23.10;25.60;;;;;;5053181;28;20219;-48
2021/03/06 00:16:54;;;;;;;4.73;2.30;;;23.10;25.10;;;;;;5051834;28;20209;-45
2021/03/06 00:19:20;;;;;;;3.77;2.23;;;23.20;25.50;;;;;;5051614;28;20191;-47
2021/03/06 00:21:46;;;;;;;2.70;1.93;;;23.10;25.50;;;;;;5053095;28;20224;-47
2021/03/06 00:24:12;;;;;;;3.23;2.17;;;23.10;25.70;;;;;;5053681;28;20619;-45
2021/03/06 00:26:38;;;;;;;4.40;1.70;;;23.10;25.80;;;;;;5053095;28;20248;-46
2021/03/06 00:29:04;;;;;;;5.87;2.00;;;23.10;25.80;;;;;;5053529;28;20205;-46
2021/03/06 00:31:30;;;;;;;5.28;2.25;;;23.10;25.90;;;;;;5051636;28;20225;-49
2021/03/06 00:33:56;;;;;;;3.25;2.17;;;23.10;26.00;;;;;;5053071;28;20201;-47
2021/03/06 00:36:22;;;;;;;5.78;1.90;;;23.10;26.10;;;;;;5054596;28;20194;-50
2021/03/06 00:38:47;;;;;;;3.93;2.10;;;23.10;26.20;;;;;;5054375;28;20584;-47
2021/03/06 00:41:13;;;;;;;3.23;1.80;;;23.10;26.20;;;;;;5053923;28;20232;-47
2021/03/06 00:43:39;;;;;;;2.10;1.70;;;23.10;26.20;;;;;;5053296;28;20209;-46
2021/03/06 00:46:05;;;;;;;2.80;1.80;;;23.10;26.20;;;;;;5054519;28;20232;-46
2021/03/06 00:48:31;;;;;;;2.10;1.90;;;23.10;26.30;;;;;;5052951;28;20201;-46
2021/03/06 00:50:57;;;;;;;2.87;2.10;;;23.10;26.90;;;;;;5053763;28;20213;-48
2021/03/06 00:53:23;;;;;;;4.23;1.90;;;23.10;26.20;;;;;;5053228;28;20256;-46
2021/03/06 00:55:49;;;;;;;4.30;2.00;;;23.10;26.30;;;;;;5053603;28;20657;-47
2021/03/06 00:58:15;;;;;;;3.53;1.87;;;23.10;26.30;;;;;;5052246;28;20224;-48
2021/03/06 01:00:41;;;;;;;2.33;1.83;;;23.10;26.30;;;;;;5073229;22;20228;-48
2021/03/06 01:03:07;;;;;;;3.23;2.00;;;23.10;26.30;;;;;;5054564;28;20267;-49
2021/03/06 01:05:32;;;;;;;2.87;1.80;;;23.10;26.30;;;;;;5054529;28;20201;-49
2021/03/06 01:07:58;;;;;;;3.83;1.90;;;23.10;26.30;;;;;;5055482;28;20634;-49
2021/03/06 01:10:24;;;;;;;2.90;1.87;;;23.10;26.30;;;;;;5053845;28;20209;-45
2021/03/06 01:12:50;;;;;;;3.10;1.90;;;23.10;26.30;;;;;;5056997;28;20204;-45
2021/03/06 01:15:16;;;;;;;2.50;2.10;;;23.10;26.40;;;;;;5054302;28;20198;-46
2021/03/06 01:17:42;;;;;;;2.13;1.90;;;23.10;26.40;;;;;;5053663;28;20209;-46
2021/03/06 01:20:08;;;;;;;2.10;1.90;;;23.10;26.40;;;;;;5060658;28;20203;-47
2021/03/06 01:22:34;;;;;;;2.80;1.40;;;23.10;26.50;;;;;;5063580;28;20259;-49
2021/03/06 01:25:00;;;;;;;3.13;1.90;;;23.10;27.10;;;;;;5053564;28;20638;-47
2021/03/06 01:27:26;;;;;;;1.83;1.73;;;23.10;26.60;;;;;;5059279;28;20217;-49
2021/03/06 01:29:52;;;;;;;2.10;1.47;;;23.10;26.70;;;;;;5052939;28;20212;-46
2021/03/06 01:32:17;;;;;;;2.10;1.73;;;23.10;26.70;;;;;;5058619;28;20226;-46
2021/03/06 01:34:43;;;;;;;3.83;1.70;;;23.10;26.70;;;;;;5056122;28;20209;-48
2021/03/06 01:37:09;;;;;;;3.30;1.83;;;23.10;26.80;;;;;;5055346;28;20315;-46
2021/03/06 01:39:35;;;;;;;3.33;2.05;;;23.10;26.80;;;;;;5055620;28;20208;-47
2021/03/06 01:42:01;;;;;;;2.20;2.00;;;23.10;26.80;;;;;;5056065;28;20641;-47
2021/03/06 01:44:27;;;;;;;1.93;1.80;;;23.10;26.80;;;;;;5059685;28;20239;-46
2021/03/06 01:46:53;;;;;;;3.83;1.87;;;23.10;26.80;;;;;;5057799;28;20226;-47
2021/03/06 01:49:19;;;;;;;2.20;2.00;;;23.10;26.80;;;;;;5059727;28;20257;-45
2021/03/06 01:51:45;;;;;;;2.53;1.47;;;23.10;26.80;;;;;;5058366;28;20222;-49
2021/03/06 01:54:11;;;;;;;2.93;1.60;;;23.10;26.90;;;;;;5063429;28;20556;-48
2021/03/06 01:56:36;;;;;;;2.57;1.90;;;23.10;26.80;;;;;;5059865;28;20202;-46
2021/03/06 01:59:02;;;;;;;2.13;1.90;;;23.10;26.80;;;;;;5052697;28;20202;-45
2021/03/06 02:01:28;;;;;;;2.50;2.10;;;23.10;26.90;;;;;;5053548;28;20228;-46
2021/03/06 02:03:54;;;;;;;2.63;1.70;;;23.10;27.40;;;;;;5051667;28;20206;-48
2021/03/06 02:06:20;;;;;;;2.97;1.73;;;23.10;26.90;;;;;;5053952;28;20224;-49
2021/03/06 02:08:46;;;;;;;4.07;1.80;;;23.10;27.00;;;;;;5057564;28;20653;-48
2021/03/06 02:11:12;;;;;;;2.83;1.90;;;23.10;27.00;;;;;;5052622;28;20225;-46
2021/03/06 02:13:38;;;;;;;4.50;1.70;;;23.10;27.00;;;;;;5056145;28;20204;-46
2021/03/06 02:16:04;;;;;;;1.60;1.47;;;23.00;27.00;;;;;;5056319;28;20201;-48
2021/03/06 02:18:30;;;;;;;1.63;1.53;;;23.10;27.10;;;;;;5061203;28;20209;-49
2021/03/06 02:20:55;;;;;;;2.30;1.90;;;23.10;27.20;;;;;;5053202;28;20622;-51
2021/03/06 02:23:21;;;;;;;2.33;1.63;;;23.10;27.10;;;;;;5059657;28;20200;-45
2021/03/06 02:25:47;;;;;;;2.50;2.23;;;23.10;27.20;;;;;;5052819;28;20213;-49
2021/03/06 02:28:14;;;;;;;2.03;1.47;;;23.10;27.20;;;;;;5071449;28;20204;-46
2021/03/06 02:30:40;;;;;;;2.40;1.43;;;23.10;27.70;;;;;;5054988;28;20237;-48
2021/03/06 02:33:05;;;;;;;2.33;1.50;;;23.10;27.20;;;;;;5067262;28;20665;-46
2021/03/06 02:35:31;;;;;;;2.90;1.80;;;23.10;27.20;;;;;;5053331;28;20217;-46
2021/03/06 02:37:57;;;;;;;2.93;1.70;;;23.10;27.20;;;;;;5052584;28;20268;-51
2021/03/06 02:40:23;;;;;;;2.07;1.77;;;23.00;27.10;;;;;;5062667;28;20227;-48
2021/03/06 02:42:49;;;;;;;2.27;1.70;;;23.00;27.10;;;;;;5058904;28;20362;-48
2021/03/06 02:45:15;;;;;;;2.33;1.63;;;23.10;27.20;;;;;;5052167;28;20274;-47
2021/03/06 02:47:41;;;;;;;1.83;1.60;;;23.00;27.10;;;;;;5061302;28;20607;-51
2021/03/06 02:50:07;;;;;;;1.97;1.80;;;23.10;27.70;;;;;;5049538;28;20202;-46
2021/03/06 02:52:33;;;;;;;1.97;1.70;;;23.10;27.20;;;;;;5071068;28;20200;-45
2021/03/06 02:54:59;;;;;;;2.93;1.83;;;23.00;27.20;;;;;;5053377;28;20204;-48
2021/03/06 02:57:25;;;;;;;1.80;1.40;;;23.00;27.20;;;;;;5053132;28;20205;-46
2021/03/06 02:59:50;;;;;;;1.87;1.60;;;23.10;27.30;;;;;;5051485;28;20212;-48
2021/03/06 03:02:16;;;;;;;2.00;1.80;;;23.10;27.30;;;;;;5051858;28;20575;-47
2021/03/06 03:04:42;;;;;;;2.23;1.50;;;23.10;27.30;;;;;;5053687;28;20219;-46
2021/03/06 03:07:08;;;;;;;1.63;1.50;;;23.00;27.30;;;;;;5051789;28;20224;-46
2021/03/06 03:09:34;;;;;;;1.50;1.40;;;23.10;27.30;;;;;;5052089;28;20216;-48
2021/03/06 03:12:00;;;;;;;2.40;1.60;;;23.10;27.30;;;;;;5051495;28;20236;-46
2021/03/06 03:14:26;;;;;;;2.77;1.80;;;23.10;27.30;;;;;;5051454;28;20216;-47
2021/03/06 03:16:52;;;;;;;2.43;1.90;;;23.00;27.30;;;;;;5050318;28;20202;-45
2021/03/06 03:19:18;;;;;;;4.30;2.33;;;23.10;27.40;;;;;;5061412;28;20684;-46
2021/03/06 03:21:44;;;;;;;2.37;1.70;;;23.10;27.40;;;;;;5051240;28;20282;-47
2021/03/06 03:24:09;;;;;;;1.93;1.70;;;23.00;27.30;;;;;;5052434;28;20209;-49
2021/03/06 03:26:35;;;;;;;2.57;1.80;;;23.00;27.30;;;;;;5056496;28;20286;-46
2021/03/06 03:29:01;;;;;;;2.57;1.70;;;23.10;27.40;;;;;;5063049;28;20216;-46
2021/03/06 03:31:27;;;;;;;2.23;1.60;;;23.10;27.40;;;;;;5059029;28;20642;-51
2021/03/06 03:33:53;;;;;;;1.63;1.53;;;23.10;27.40;;;;;;5056497;28;20201;-48
2021/03/06 03:36:19;;;;;;;1.70;1.60;;;23.00;27.30;;;;;;5058401;28;20201;-49
2021/03/06 03:38:45;;;;;;;2.50;1.60;;;23.10;27.40;;;;;;5055560;28;20201;-46
2021/03/06 03:41:11;;;;;;;2.13;1.60;;;23.10;27.40;;;;;;5053104;28;20232;-45
2021/03/06 03:43:37;;;;;;;1.60;1.50;;;23.00;27.40;;;;;;5050604;28;20563;-46
2021/03/06 03:46:03;;;;;;;3.43;2.03;;;23.10;27.50;;;;;;5051670;28;20205;-46
2021/03/06 03:48:29;;;;;;;2.67;1.80;;;23.00;27.40;;;;;;5057351;28;20219;-46
2021/03/06 03:50:55;;;;;;;2.57;1.57;;;23.10;27.50;;;;;;5055857;28;20218;-48
2021/03/06 03:53:21;;;;;;;1.63;1.40;;;23.10;27.60;;;;;;5051047;28;20205;-47
2021/03/06 03:55:46;;;;;;;2.77;1.53;;;23.00;27.50;;;;;;5051594;28;20210;-46
2021/03/06 03:58:12;;;;;;;2.13;1.83;;;23.10;27.60;;;;;;5050859;28;20259;-48
2021/03/06 04:00:38;;;;;;;1.87;1.77;;;23.10;27.60;;;;;;5058736;28;20644;-47
2021/03/06 04:03:04;;;;;;;1.83;1.67;;;23.10;27.60;;;;;;5065416;28;20665;-47
2021/03/06 04:05:30;;;;;;;6.10;1.93;;;23.10;27.70;;;;;;5053076;28;20213;-46
2021/03/06 04:07:56;;;;;;;2.33;1.90;;;23.00;27.80;;;;;;5052739;28;20228;-45
2021/03/06 04:10:22;;;;;;;2.40;2.20;;;23.00;27.70;;;;;;5054150;28;20228;-45
2021/03/06 04:12:48;;;;;;;3.50;1.80;;;23.10;27.60;;;;;;5058431;28;20211;-46
2021/03/06 04:15:14;;;;;;;3.43;2.10;;;23.10;27.60;;;;;;5056880;28;20212;-47
2021/03/06 04:17:40;;;;;;;2.30;1.90;;;23.10;27.60;;;;;;5054101;28;20564;-45
2021/03/06 04:20:05;;;;;;;2.97;1.70;;;23.10;27.70;;;;;;5053827;28;20715;-45
2021/03/06 04:22:31;;;;;;;2.60;1.60;;;23.10;28.10;;;;;;5060290;28;20200;-46
2021/03/06 04:24:57;;;;;;;2.77;1.87;;;23.10;27.40;;;;;;5049744;28;20209;-46
2021/03/06 04:27:23;;;;;;;2.50;1.87;;;23.10;27.40;;;;;;5051060;28;20233;-45
2021/03/06 04:29:49;;;;;;;2.77;1.80;;;23.10;27.40;;;;;;5054597;28;20242;-47
2021/03/06 04:32:15;;;;;;;3.43;1.90;;;23.10;27.50;;;;;;5052950;28;20213;-45
2021/03/06 04:34:41;;;;;;;2.30;1.90;;;23.10;27.50;;;;;;5051480;28;20672;-46
2021/03/06 04:37:07;;;;;;;2.47;1.83;;;23.10;27.50;;;;;;5054821;28;20220;-48
2021/03/06 04:39:33;;;;;;;2.07;1.77;;;23.10;27.50;;;;;;5054519;28;20207;-48
2021/03/06 04:41:59;;;;;;;2.87;1.80;;;23.10;27.50;;;;;;5056373;28;20208;-47
2021/03/06 04:44:25;;;;;;;2.50;2.03;;;23.10;27.50;;;;;;5058671;28;20205;-48
2021/03/06 04:46:50;;;;;;;2.27;2.00;;;23.10;28.10;;;;;;5055182;28;20583;-46
2021/03/06 04:49:16;;;;;;;2.23;1.57;;;23.10;27.50;;;;;;5054463;28;20220;-46
2021/03/06 04:51:42;;;;;;;1.83;1.67;;;23.10;27.50;;;;;;5064355;28;20222;-48
2021/03/06 04:54:08;;;;;;;1.90;1.70;;;23.10;27.50;;;;;;5062376;28;20217;-51
2021/03/06 04:56:34;;;;;;;2.80;1.90;;;23.10;27.50;;;;;;5064142;28;20208;-46
2021/03/06 04:59:00;;;;;;;2.50;2.30;;;23.10;27.50;;;;;;5054576;28;20213;-46
2021/03/06 05:01:26;;;;;;;2.00;1.70;;;23.10;27.50;;;;;;5060584;28;20595;-47
2021/03/06 05:03:52;;;;;;;1.90;1.70;;;23.10;27.50;;;;;;5055030;28;20216;-48
2021/03/06 05:06:18;;;;;;;3.23;2.07;;;23.10;27.50;;;;;;5061676;28;20231;-48
2021/03/06 05:08:44;;;;;;;2.13;1.83;;;23.10;27.50;;;;;;5068988;28;20201;-49
2021/03/06 05:11:09;;;;;;;2.20;2.00;;;23.10;27.50;;;;;;5066491;28;20233;-48
2021/03/06 05:13:35;;;;;;;2.00;1.80;;;23.10;27.50;;;;;;5065560;28;20231;-48
2021/03/06 05:16:01;;;;;;;1.87;1.77;;;23.10;27.50;;;;;;5063577;28;20275;-48
2021/03/06 05:18:27;;;;;;;3.10;1.70;;;23.10;27.50;;;;;;5054300;28;20681;-47
2021/03/06 05:20:53;;;;;;;2.93;1.60;;;23.10;27.40;;;;;;5065120;28;20217;-49
2021/03/06 05:23:19;;;;;;;1.87;1.70;;;23.10;27.40;;;;;;5054757;28;20212;-46
2021/03/06 05:25:45;;;;;;;2.00;1.50;;;23.10;27.50;;;;;;5054651;28;20208;-51
2021/03/06 05:28:11;;;;;;;3.00;1.80;;;23.10;27.50;;;;;;5054052;28;20241;-53
2021/03/06 05:30:37;;;;;;;2.30;1.67;;;23.10;27.50;;;;;;5053628;28;20229;-50
2021/03/06 05:33:03;;;;;;;1.93;1.73;;;23.10;27.60;;;;;;5067476;28;20223;-48
2021/03/06 05:35:29;;;;;;;1.97;1.60;;;23.10;27.60;;;;;;5072194;28;20599;-48
2021/03/06 05:37:55;;;;;;;2.63;1.90;;;23.10;27.50;;;;;;5057371;28;20758;-48
2021/03/06 05:40:20;;;;;;;2.60;1.77;;;23.10;27.50;;;;;;5048310;28;20230;-48
2021/03/06 05:42:46;;;;;;;1.77;1.50;;;23.10;27.60;;;;;;5058133;28;20212;-52
2021/03/06 05:45:12;;;;;;;2.67;1.60;;;23.10;27.60;;;;;;5062425;28;20205;-51
2021/03/06 05:47:38;;;;;;;1.57;1.47;;;23.10;27.50;;;;;;5052022;28;20237;-52
2021/03/06 05:50:04;;;;;;;1.87;1.70;;;23.10;27.60;;;;;;5058270;28;20721;-47
2021/03/06 05:52:30;;;;;;;3.00;1.93;;;23.00;27.50;;;;;;5057449;28;20684;-49
2021/03/06 05:54:56;;;;;;;2.00;1.80;;;23.10;27.50;;;;;;5060379;28;20684;-51
2021/03/06 05:57:22;;;;;;;3.20;1.87;;;23.10;27.60;;;;;;5058555;28;20201;-49
2021/03/06 05:59:48;;;;;;;2.13;1.57;;;23.00;27.50;;;;;;5053257;28;20236;-52
2021/03/06 06:02:14;;;;;;;3.10;1.67;;;23.10;27.50;;;;;;5056460;28;20206;-50
2021/03/06 06:04:40;;;;;;;3.33;2.13;;;23.10;27.50;;;;;;5059760;28;20205;-46
2021/03/06 06:07:05;;;;;;;2.00;1.80;;;23.10;27.50;;;;;;5058156;28;20327;-48
2021/03/06 06:09:31;;;;;;;1.70;1.60;;;23.10;27.50;;;;;;5058142;28;20727;-48
2021/03/06 06:11:57;;;;;;;2.20;1.80;;;23.10;27.40;;;;;;5065369;28;20212;-45
2021/03/06 06:14:23;;;;;;;1.87;1.77;;;23.10;27.40;;;;;;5053148;28;20206;-47
2021/03/06 06:16:49;;;;;;;3.50;1.67;;;23.10;27.50;;;;;;5052106;28;20209;-46
2021/03/06 06:19:15;;;;;;;1.63;1.53;;;23.10;27.50;;;;;;5063187;28;20215;-51
2021/03/06 06:21:41;;;;;;;1.77;1.67;;;23.10;27.50;;;;;;5057264;28;20561;-47
2021/03/06 06:24:07;;;;;;;1.90;1.73;;;23.10;27.60;;;;;;5055567;28;20206;-47
2021/03/06 06:26:33;;;;;;;3.30;1.80;;;23.10;27.50;;;;;;5061626;28;20236;-46
2021/03/06 06:28:59;;;;;;;2.60;1.60;;;23.10;27.60;;;;;;5056294;28;20200;-48
2021/03/06 06:31:25;;;;;;;2.33;1.70;;;23.10;27.60;;;;;;5060577;28;20232;-45
2021/03/06 06:33:50;;;;;;;2.63;1.80;;;23.10;27.60;;;;;;5059226;28;20197;-47
2021/03/06 06:36:16;;;;;;;2.50;1.63;;;23.10;27.60;;;;;;5063470;28;20280;-47
2021/03/06 06:38:42;;;;;;;1.77;1.67;;;23.10;27.60;;;;;;5060185;28;20219;-48
2021/03/06 06:41:08;;;;;;;2.83;1.60;;;23.10;27.60;;;;;;5051805;28;20221;-47
2021/03/06 06:43:34;;;;;;;2.47;1.80;;;23.10;27.60;;;;;;5052693;28;20206;-48
2021/03/06 06:46:00;;;;;;;1.70;1.60;;;23.10;27.60;;;;;;5051520;28;20679;-46
2021/03/06 06:48:26;;;;;;;1.90;1.70;;;23.10;27.50;;;;;;5052196;28;20236;-45
2021/03/06 06:50:52;;;;;;;1.80;1.70;;;23.10;27.60;;;;;;5056297;28;20225;-49
2021/03/06 06:53:18;;;;;;;1.90;1.70;;;23.10;27.50;;;;;;5050389;28;20215;-50
2021/03/06 06:55:44;;;;;;;1.90;1.70;;;23.10;27.50;;;;;;5052620;28;20205;-48
2021/03/06 06:58:09;;;;;;;2.10;1.67;;;23.10;27.50;;;;;;5052002;28;20204;-49
2021/03/06 07:00:35;;;;;;;3.53;1.63;;;23.10;27.50;;;;;;5058669;28;20804;-46
2021/03/06 07:03:01;;;;;;;1.97;1.63;;;23.10;27.40;;;;;;5062043;28;20220;-48
2021/03/06 07:05:27;;;;;;;2.23;1.80;;;23.10;27.50;;;;;;5057626;28;20204;-46
2021/03/06 07:07:53;;;;;;;1.73;1.60;;;23.10;27.50;;;;;;5055492;28;20229;-49
2021/03/06 07:10:20;;;;;;;1.60;1.50;;;23.10;27.60;;;;;;5051471;28;20235;-50
2021/03/06 07:12:46;;;;;;;2.70;1.90;;;23.10;27.60;;;;;;5051736;28;20271;-47
2021/03/06 07:15:12;;;;;;;1.50;1.40;;;23.10;27.60;;;;;;5055088;28;20208;-49
2021/03/06 07:17:38;;;;;;;1.50;1.40;;;23.10;27.60;;;;;;5061912;28;20210;-52
2021/03/06 07:20:04;;;;;;;2.13;1.50;;;23.10;27.60;;;;;;5057011;28;20634;-46
2021/03/06 07:22:30;;;;;;;1.97;1.50;;;23.10;27.60;;;;;;5050620;28;20216;-46
2021/03/06 07:24:56;;;;;;;1.60;1.47;;;23.10;27.60;;;;;;5051314;28;20209;-49
2021/03/06 07:27:22;;;;;;;1.90;1.60;;;23.10;27.60;;;;;;5053361;28;20236;-50
2021/03/06 07:29:47;;;;;;;1.50;1.38;;;23.10;27.50;;;;;;5060316;28;20217;-49
2021/03/06 07:32:14;;;;;;;1.40;1.30;;;23.10;28.10;;;;;;5050606;28;20201;-49
2021/03/06 07:34:40;;;;;;;2.43;1.50;;;23.10;27.60;;;;;;5050884;28;20263;-46
2021/03/06 07:37:06;;;;;;;2.33;1.70;;;23.10;27.60;;;;;;5050712;28;20596;-49
2021/03/06 07:39:32;;;;;;;2.10;1.70;;;23.10;27.50;;;;;;5048280;28;20276;-49
2021/03/06 07:41:58;;;;;;;1.55;1.45;;;23.10;27.50;;;;;;5045136;28;20206;-47
2021/03/06 07:44:25;;;;;;;2.73;1.70;;;23.10;27.50;;;;;;5055469;28;20246;-47
2021/03/06 07:46:51;;;;;;;2.80;2.10;;;23.10;27.60;;;;;;5071270;28;20782;-51
2021/03/06 07:49:17;;;;;;;4.80;1.93;;;23.10;28.10;;;;;;5048259;28;20229;-46
2021/03/06 07:51:42;;;;;;;4.87;2.10;;;23.10;28.10;;;;;;5051376;28;20206;-45
2021/03/06 07:54:08;;;;;;;3.17;1.80;;;23.10;28.10;;;;;;5048504;28;20263;-46
2021/03/06 07:56:34;;;;;;;6.00;2.10;;;23.00;28.10;;;;;;5050628;28;20221;-44
2021/03/06 07:59:00;;;;;;;4.97;2.27;;;23.00;28.10;;;;;;5052631;28;20691;-45
2021/03/06 08:01:26;;;;;;;5.87;1.90;;;23.00;28.30;;;;;;5059109;28;20217;-46
2021/03/06 08:03:52;;;;;;;3.73;1.80;;;22.90;28.30;;;;;;5035090;28;20217;-46
2021/03/06 08:06:18;;;;;;;4.03;1.83;;;22.90;28.30;;;;;;5051341;28;20212;-46
2021/03/06 08:08:44;;;;;;;2.83;1.80;;;23.00;28.30;;;;;;5051102;28;20201;-49
2021/03/06 08:11:10;;;;;;;4.63;1.87;;;23.00;28.30;;;;;;5054784;28;20222;-49
2021/03/06 08:13:36;;;;;;;2.93;1.87;;;23.10;28.10;;;;;;5053666;28;20645;-45
2021/03/06 08:16:02;;;;;;;9.33;2.33;;;23.10;28.10;;;;;;5054313;28;20208;-47
2021/03/06 08:18:27;;;;;;;7.13;2.10;;;23.10;28.10;;;;;;5060393;28;20209;-48
2021/03/06 08:20:53;;;;;;;4.17;1.77;;;23.10;28.10;;;;;;5059470;28;20224;-49
2021/03/06 08:23:19;;;;;;;9.23;2.17;;;23.10;28.70;;;;;;5055028;28;20244;-46
2021/03/06 08:25:45;;;;;;;6.93;2.10;;;23.10;28.10;;;;;;5054761;28;20204;-47
2021/03/06 08:28:11;;;;;;;5.40;2.00;;;23.10;28.50;;;;;;5055002;28;20592;-47
2021/03/06 08:30:37;;;;;;;7.40;2.73;;;23.10;29.30;;;;;;5054009;28;20225;-46
2021/03/06 08:33:03;;;;;;;3.80;3.17;;;23.00;28.70;;;;;;5054413;28;20211;-47
2021/03/06 08:35:31;;;;;;;5.70;2.70;;;21.60;19.20;;;;;;5053902;28;20311;-50
2021/03/06 08:37:57;;;;;;;4.03;2.30;;;21.50;21.00;;;;;;5052339;28;20203;-48
2021/03/06 08:40:26;;;;;;;6.80;2.50;;;21.90;22.90;;;;;;5061937;28;20221;-46
2021/03/06 08:42:52;;;;;;;2.73;2.27;;;22.20;23.80;;;;;;5060938;28;20192;-48
2021/03/06 08:45:18;;;;;;;3.53;2.10;;;22.40;24.30;;;;;;5055917;28;20201;-46
2021/03/06 08:47:44;;;;;;;2.50;2.10;;;22.60;24.70;;;;;;5051630;28;20232;-47
2021/03/06 08:50:10;;;;;;;2.90;2.03;;;22.70;25.10;;;;;;5056657;28;20876;-48
2021/03/06 08:52:38;;;;;;;3.20;1.80;;;22.70;25.20;;;;;;5056196;28;20682;-48
2021/03/06 08:55:04;;;;;;;2.17;1.90;;;22.80;25.50;;;;;;5056589;28;20208;-48
2021/03/06 08:57:30;;;;;;;4.67;2.07;;;22.80;25.60;;;;;;5053802;28;20594;-48
2021/03/06 08:59:56;;;;;;;2.93;1.60;;;22.90;25.80;;;;;;5071320;28;20285;-49
2021/03/06 09:02:22;;;;;;;2.03;1.70;;;22.90;26.00;;;;;;5048644;28;20560;-53
2021/03/06 09:04:48;;;;;;;1.70;1.60;;;22.90;26.00;;;;;;5051926;28;20694;-47
2021/03/06 09:07:14;;;;;;;3.47;1.90;;;23.00;26.20;;;;;;5052701;28;20291;-45
2021/03/06 09:09:40;;;;;;;1.87;1.60;;;23.10;26.20;;;;;;5052032;28;20225;-43
2021/03/06 09:12:07;;;;;;;4.80;2.03;;;23.10;26.50;;;;;;5051171;28;20198;-44
2021/03/06 09:14:33;;;;;;;3.77;1.73;;;23.10;26.80;;;;;;5051926;28;21838;-52
2021/03/06 09:16:59;;;;;;;2.67;1.50;;;23.20;26.60;;;;;;5053357;28;20298;-52
2021/03/06 09:19:24;;;;;;;3.40;1.60;;;23.10;26.60;;;;;;5051382;28;20255;-53
2021/03/06 09:21:50;;;;;;;2.60;1.80;;;23.10;26.60;;;;;;5034274;28;20666;-55
2021/03/06 09:24:16;;;;;;;3.03;1.70;;;23.10;27.20;;;;;;5051759;28;20205;-44
2021/03/06 09:26:42;;;;;;;2.67;1.87;;;23.10;26.70;;;;;;5051569;28;20224;-48
2021/03/06 09:29:08;;;;;;;3.57;1.83;;;23.10;26.70;;;;;;5048558;28;20225;-45
2021/03/06 09:31:34;;;;;;;2.70;1.70;;;23.10;26.80;;;;;;5051800;28;20205;-46
2021/03/06 09:34:02;;;;;;;1.97;1.73;;;23.20;26.90;;;;;;5052150;28;20802;-44
2021/03/06 09:36:28;;;;;;;2.07;1.63;;;23.20;26.90;;;;;;5053758;28;20212;-48
2021/03/06 09:38:54;;;;;;;3.50;1.70;;;23.20;26.90;;;;;;5048720;28;20226;-48
2021/03/06 09:41:20;;;;;;;3.10;1.57;;;23.20;27.20;;;;;;5053041;28;20231;-46
2021/03/06 09:43:46;;;;;;;2.10;1.50;;;23.10;27.00;;;;;;5051943;28;20564;-47
2021/03/06 09:46:12;;;;;;;2.20;2.00;;;23.20;27.10;;;;;;5051297;28;20688;-44
2021/03/06 09:48:38;;;;;;;1.70;1.60;;;23.20;27.20;;;;;;5053131;28;20297;-44
2021/03/06 09:51:04;;;;;;;1.50;1.40;;;23.20;27.20;;;;;;5049725;28;20243;-48
2021/03/06 09:53:29;;;;;;;2.17;1.70;;;23.20;27.20;;;;;;5048178;28;20264;-44
2021/03/06 09:55:55;;;;;;;1.53;1.43;;;23.20;27.50;;;;;;5049242;28;20217;-46
2021/03/06 09:58:21;;;;;;;2.00;1.77;;;23.20;27.30;;;;;;5045934;28;20658;-49
2021/03/06 10:00:47;;;;;;;2.10;1.90;;;23.30;27.50;;;;;;5048755;28;20221;-47
2021/03/06 10:03:13;;;;;;;2.53;1.90;;;23.30;27.20;;;;;;5059957;28;20208;-48
2021/03/06 10:05:39;;;;;;;2.80;1.80;;;23.30;27.20;;;;;;5071701;28;20207;-50
2021/03/06 10:08:05;;;;;;;3.37;1.80;;;23.20;27.20;;;;;;5073016;28;20243;-50
2021/03/06 10:10:31;;;;;;;3.17;1.73;;;23.20;27.10;;;;;;5058747;28;20205;-45
2021/03/06 10:12:57;;;;;;;2.50;1.63;;;23.20;27.20;;;;;;5052733;28;20228;-47
2021/03/06 10:15:23;;;;;;;3.17;1.53;;;23.20;27.20;;;;;;5053122;28;20204;-49
2021/03/06 10:17:49;;;;;;;2.77;1.57;;;23.20;27.20;;;;;;5052607;28;20718;-48
2021/03/06 10:20:15;;;;;;;2.80;1.73;;;23.20;27.20;;;;;;5052695;28;20213;-50
2021/03/06 10:22:40;;;;;;;6.93;1.87;;;23.20;27.30;;;;;;5052360;28;20263;-49
2021/03/06 10:25:06;;;;;;;2.28;1.80;;;23.20;27.30;;;;;;5052690;28;20205;-49
2021/03/06 10:27:32;;;;;;;3.20;1.90;;;23.20;27.30;;;;;;5052738;28;20237;-46
2021/03/06 10:29:58;;;;;;;1.83;1.67;;;23.20;27.30;;;;;;5052716;28;20275;-47
2021/03/06 10:32:24;;;;;;;1.93;1.70;;;23.20;27.30;;;;;;5070351;28;20197;-45
2021/03/06 10:34:51;;;;;;;1.70;1.57;;;23.20;27.90;;;;;;5041111;28;20228;-47
2021/03/06 10:37:17;;;;;;;2.00;1.40;;;23.20;27.40;;;;;;5032803;28;20235;-45
2021/03/06 10:39:42;;;;;;;2.20;1.70;;;23.20;27.40;;;;;;5051417;28;20232;-45
2021/03/06 10:42:08;;;;;;;2.80;1.60;;;23.20;27.40;;;;;;5072098;28;20207;-47
2021/03/06 10:44:34;;;;;;;1.80;1.70;;;23.20;27.40;;;;;;5058110;28;20213;-46
2021/03/06 10:47:00;;;;;;;2.27;1.83;;;23.20;27.40;;;;;;5052024;28;20277;-46
2021/03/06 10:49:26;;;;;;;2.33;1.30;;;23.20;27.40;;;;;;5056402;28;20216;-45
2021/03/06 10:51:53;;;;;;;3.20;1.70;;;23.20;27.40;;;;;;5056529;28;20659;-46
2021/03/06 10:54:21;;;;;;;1.63;1.43;;;23.20;27.40;;;;;;5052538;28;20563;-45
2021/03/06 10:56:47;;;;;;;4.13;1.60;;;23.20;27.40;;;;;;5052462;28;20217;-51
2021/03/06 10:59:14;;;;;;;10.60;2.30;;;23.20;27.40;;;;;;5051992;28;20573;-47
2021/03/06 11:01:40;;;;;;;1.53;1.43;;;23.20;27.00;;;;;;5049052;28;20205;-49
2021/03/06 11:04:06;;;;;;;3.00;1.80;;;23.20;27.10;;;;;;5040104;28;20205;-49
2021/03/06 11:06:32;;;;;;;3.80;2.00;;;23.30;27.70;;;;;;5051262;28;20201;-45
2021/03/06 11:08:58;;;;;;;2.47;1.73;;;23.30;27.70;;;;;;5045380;28;20299;-49
2021/03/06 11:11:24;;;;;;;5.47;1.67;;;23.30;27.70;;;;;;5051335;28;20658;-47
2021/03/06 11:13:50;;;;;;;2.33;1.50;;;23.40;27.60;;;;;;5050290;28;20246;-55
2021/03/06 11:16:16;;;;;;;2.03;1.87;;;23.30;27.60;;;;;;5049974;28;20198;-46
2021/03/06 11:18:41;;;;;;;2.97;1.73;;;23.30;27.90;;;;;;5045075;28;20222;-49
2021/03/06 11:21:10;;;;;;;2.50;1.60;;;23.30;27.50;;;;;;5044556;28;20224;-45
2021/03/06 11:23:36;;;;;;;3.53;1.70;;;23.30;27.50;;;;;;5050800;28;20202;-44
2021/03/06 11:26:02;;;;;;;2.37;1.57;;;23.30;27.50;;;;;;5050844;28;20190;-42
2021/03/06 11:28:28;;;;;;;2.63;1.47;;;23.40;27.50;;;;;;5051032;28;20288;-45
2021/03/06 11:30:54;;;;;;;1.50;1.40;;;23.30;27.40;;;;;;5045830;28;20197;-48
2021/03/06 11:33:20;;;;;;;1.63;1.40;;;23.30;27.40;;;;;;5049819;28;20275;-45
2021/03/06 11:35:46;;;;;;;3.20;1.90;;;23.40;27.40;;;;;;5045651;28;20666;-45
2021/03/06 11:38:12;;;;;;;2.77;1.60;;;23.30;28.00;;;;;;5050068;28;20232;-44
2021/03/06 11:40:38;;;;;;;6.60;3.20;;;23.30;27.60;;;;;;5046235;28;20205;-50
2021/03/06 11:43:03;;;;;;;8.07;3.00;;;23.20;25.80;;;;;;5043351;28;20213;-56
2021/03/06 11:45:29;;;;;;;13.47;3.17;;;23.20;24.30;;;;;;5046668;28;20205;-56
2021/03/06 11:47:56;;;;;;;5.80;2.55;;;23.20;24.30;;;;;;5048514;28;20241;-47
2021/03/06 11:50:22;;;;;;;4.72;2.40;;;23.30;25.90;;;;;;5049568;28;20205;-52
2021/03/06 11:52:47;;;;;;;7.70;2.33;;;23.30;25.50;;;;;;5049859;28;20257;-58
2021/03/06 11:55:13;;;;;;;3.38;2.10;;;23.30;26.80;;;;;;5049691;28;20216;-53
2021/03/06 11:57:39;;;;;;;6.33;2.60;;;23.40;26.60;;;;;;5050694;28;20218;-53
2021/03/06 12:00:05;;;;;;;6.20;2.50;;;23.30;26.70;;;;;;5050101;28;20575;-53
2021/03/06 12:02:31;;;;;;;1.90;1.80;;;23.40;26.80;;;;;;5048272;28;20205;-56
2021/03/06 12:04:57;;;;;;;4.40;1.90;;;23.30;27.00;;;;;;5046957;28;20217;-53
2021/03/06 12:07:23;;;;;;;4.20;1.83;;;23.40;27.00;;;;;;5050526;28;20236;-54
2021/03/06 12:09:49;;;;;;;2.25;1.95;;;23.40;27.10;;;;;;5050587;28;20201;-49
2021/03/06 12:12:15;;;;;;;5.83;2.63;;;23.40;27.00;;;;;;5049425;28;20206;-54
2021/03/06 12:14:41;;;;;;;3.47;2.00;;;23.40;27.10;;;;;;5049510;28;20221;-59
2021/03/06 12:17:07;;;;;;;4.47;2.07;;;23.40;27.30;;;;;;5049228;28;20212;-46
2021/03/06 12:19:33;;;;;;;5.40;2.40;;;23.40;27.30;;;;;;5050625;28;20209;-47
2021/03/06 12:21:59;;;;;;;3.83;2.20;;;23.40;27.60;;;;;;5047689;28;20198;-49
2021/03/06 12:24:24;;;;;;;4.45;2.35;;;23.40;27.40;;;;;;5049680;28;20202;-52
2021/03/06 12:26:51;;;;;;;15.23;10.90;;;23.50;27.60;;;;;;5047811;28;20245;-45
2021/03/06 12:29:17;;;;;;;12.93;8.87;;;23.50;28.00;;;;;;5049071;28;20226;-46
2021/03/06 12:31:43;;;;;;;19.43;11.87;;;23.50;27.80;;;;;;5051017;28;20557;-44
2021/03/06 12:34:09;;;;;;;26.63;18.63;;;23.50;28.10;;;;;;5048322;28;20204;-45
2021/03/06 12:36:36;;;;;;;57.93;37.43;;;23.50;28.20;;;;;;5044354;28;20217;-49
2021/03/06 12:39:02;;;;;;;73.53;46.77;;;23.50;28.40;;;;;;5046198;28;20731;-45